Time;durP1;ratioP1;P1;durP2;ratioP2;P2;SDS_P1;SDS_P2;PMS_P1;PMS_P2;Temp;Humidity;BMP_temperature;BMP_pressure;BME280_temperature;BME280_humidity;BME280_pressure;Samples;Min_cycle;Max_cycle;Signal;HPM_P1;HPM_P2
2022/06/22 00:00:05;;;;;;;;;;;;;;;12.22;100.00;97522.09;5132699;28;20394;-51
2022/06/22 00:02:35;;;;;;;;;;;;;;;12.06;100.00;97524.69;5132876;28;19927;-48
2022/06/22 00:05:02;;;;;;;;;;;;;;;12.20;100.00;97524.50;5132953;28;19927;-52
2022/06/22 00:07:30;;;;;;;;;;;;;;;12.31;100.00;97519.59;5132671;28;20472;-51
2022/06/22 00:09:59;;;;;;;;;;;;;;;12.43;100.00;97523.75;5132520;28;19938;-52
2022/06/22 00:12:26;;;;;;;;;;;;;;;12.43;100.00;97530.03;5132879;28;20441;-50
2022/06/22 00:14:53;;;;;;;;;;;;;;;12.49;100.00;97533.06;5133057;28;19931;-49
2022/06/22 00:17:20;;;;;;;;;;;;;;;12.55;100.00;97534.13;5132802;28;19928;-50
2022/06/22 00:19:47;;;;;;;;;;;;;;;12.52;100.00;97536.94;5132822;28;19928;-49
2022/06/22 00:22:17;;;;;;;;;;;;;;;12.46;100.00;97534.69;5132671;28;20367;-49
2022/06/22 00:24:43;;;;;;;;;;;;;;;12.34;100.00;97540.75;5132688;28;20361;-53
2022/06/22 00:27:20;;;;;;;;;;;;;;;12.28;100.00;97538.91;5132355;28;19952;-48
2022/06/22 00:29:47;;;;;;;;;;;;;;;12.34;100.00;97542.72;5132237;28;19934;-49
2022/06/22 00:32:17;;;;;;;;;;;;;;;12.47;100.00;97541.72;5132212;28;19928;-50
2022/06/22 00:34:43;;;;;;;;;;;;;;;12.66;100.00;97534.75;5132184;28;19935;-49
2022/06/22 00:37:14;;;;;;;;;;;;;;;12.53;100.00;97536.53;5132105;28;20084;-49
2022/06/22 00:39:42;;;;;;;;;;;;;;;12.51;100.00;97541.69;5132134;28;20474;-52
2022/06/22 00:42:25;;;;;;;;;;;;;;;12.70;100.00;97548.44;5132300;28;20010;-49
2022/06/22 00:44:56;;;;;;;;;;;;;;;12.55;100.00;97541.63;5132077;28;19975;-50
2022/06/22 00:47:25;;;;;;;;;;;;;;;12.66;100.00;97544.97;5131835;28;19931;-48
2022/06/22 00:49:53;;;;;;;;;;;;;;;12.48;100.00;97545.25;5131947;28;20447;-53
2022/06/22 00:52:25;;;;;;;;;;;;;;;12.67;100.00;97549.28;5132232;28;20386;-51
2022/06/22 00:54:51;;;;;;;;;;;;;;;12.48;100.00;97548.00;5131972;28;19934;-52
2022/06/22 00:57:22;;;;;;;;;;;;;;;12.54;100.00;97553.81;5131854;28;19928;-49
2022/06/22 00:59:51;;;;;;;;;;;;;;;12.42;100.00;97544.16;5131599;28;20314;-49
2022/06/22 01:02:22;;;;;;;;;;;;;;;12.71;100.00;97545.25;5131764;28;19989;-51
2022/06/22 01:04:51;;;;;;;;;;;;;;;12.72;100.00;97544.06;5132134;28;19938;-51
2022/06/22 01:07:22;;;;;;;;;;;;;;;12.56;100.00;97557.72;5131824;28;19988;-49
2022/06/22 01:09:53;;;;;;;;;;;;;;;12.59;100.00;97556.06;5131697;27;19931;-49
2022/06/22 01:12:23;;;;;;;;;;;;;;;12.64;100.00;97559.13;5131529;28;19927;-49
2022/06/22 01:14:54;;;;;;;;;;;;;;;12.80;100.00;97560.47;5131855;28;20376;-51
2022/06/22 01:17:24;;;;;;;;;;;;;;;12.78;100.00;97568.34;5131635;28;20420;-50
2022/06/22 01:19:53;;;;;;;;;;;;;;;12.68;100.00;97570.06;5131471;28;19928;-50
2022/06/22 01:22:27;;;;;;;;;;;;;;;12.59;100.00;97559.59;5131640;28;19927;-49
2022/06/22 01:24:59;;;;;;;;;;;;;;;12.90;100.00;97562.25;5131804;28;20888;-49
2022/06/22 01:27:30;;;;;;;;;;;;;;;12.97;100.00;97558.59;5131456;28;19931;-48
2022/06/22 01:29:58;;;;;;;;;;;;;;;12.73;100.00;97569.59;5131487;28;19934;-49
2022/06/22 01:32:27;;;;;;;;;;;;;;;12.77;100.00;97564.81;5131320;28;19927;-51
2022/06/22 01:34:56;;;;;;;;;;;;;;;12.71;100.00;97564.50;5131117;28;19935;-52
2022/06/22 01:37:23;;;;;;;;;;;;;;;12.87;100.00;97561.13;5131283;28;20379;-49
2022/06/22 01:39:50;;;;;;;;;;;;;;;12.79;100.00;97554.16;5131249;28;19927;-48
2022/06/22 01:42:19;;;;;;;;;;;;;;;12.78;100.00;97563.63;5131452;28;19950;-49
2022/06/22 01:44:49;;;;;;;;;;;;;;;12.83;100.00;97565.09;5131421;28;19927;-49
2022/06/22 01:47:28;;;;;;;;;;;;;;;12.84;100.00;97572.94;5131163;28;19927;-49
2022/06/22 01:49:58;;;;;;;;;;;;;;;12.73;100.00;97564.13;5131298;28;19927;-49
2022/06/22 01:52:35;;;;;;;;;;;;;;;12.57;100.00;97566.72;5131126;28;19928;-51
2022/06/22 01:55:05;;;;;;;;;;;;;;;12.70;100.00;97559.44;5131206;28;20380;-49
2022/06/22 01:57:34;;;;;;;;;;;;;;;12.71;100.00;97550.00;5130857;28;20026;-52
2022/06/22 02:00:04;;;;;;;;;;;;;;;12.85;100.00;97563.50;5130818;28;19928;-51
2022/06/22 02:02:34;;;;;;;;;;;;;;;12.87;100.00;97571.34;5131093;28;20339;-51
2022/06/22 02:05:02;;;;;;;;;;;;;;;12.79;100.00;97578.91;5130982;28;19927;-50
2022/06/22 02:07:44;;;;;;;;;;;;;;;12.74;100.00;97586.88;5131175;28;19933;-48
2022/06/22 02:10:23;;;;;;;;;;;;;;;12.73;100.00;97591.59;5130971;28;20063;-48
2022/06/22 02:12:53;;;;;;;;;;;;;;;12.87;100.00;97596.09;5131484;28;20033;-48
2022/06/22 02:15:26;;;;;;;;;;;;;;;12.93;100.00;97613.69;5130845;28;20306;-49
2022/06/22 02:17:52;;;;;;;;;;;;;;;12.66;100.00;97608.19;5130742;28;19928;-50
2022/06/22 02:20:30;;;;;;;;;;;;;;;12.80;100.00;97604.47;5131993;27;20347;-48
2022/06/22 02:22:58;;;;;;;;;;;;;;;12.80;100.00;97604.47;5134386;28;20286;-49
2022/06/22 02:25:24;;;;;;;;;;;;;;;13.08;100.00;97603.97;5134229;28;20026;-49
2022/06/22 02:27:50;;;;;;;;;;;;;;;12.88;100.00;97633.41;5134487;28;19980;-49
2022/06/22 02:30:16;;;;;;;;;;;;;;;12.90;100.00;97636.50;5134269;28;20298;-50
2022/06/22 02:32:44;;;;;;;;;;;;;;;12.91;100.00;97627.06;5134318;28;19970;-52
2022/06/22 02:35:11;;;;;;;;;;;;;;;12.81;100.00;97637.03;5134598;28;19927;-49
2022/06/22 02:37:39;;;;;;;;;;;;;;;12.72;100.00;97643.03;5133977;28;19928;-48
2022/06/22 02:40:06;;;;;;;;;;;;;;;12.77;100.00;97635.53;5134467;28;19927;-49
2022/06/22 02:45:17;;;;;;;;;;;;;;;12.86;100.00;97635.78;5134193;28;19935;-50
2022/06/22 02:47:46;;;;;;;;;;;;;;;12.71;100.00;97643.47;5134079;28;19932;-50
2022/06/22 02:50:17;;;;;;;;;;;;;;;12.89;100.00;97643.19;5133910;28;19927;-48
2022/06/22 02:52:46;;;;;;;;;;;;;;;12.93;100.00;97646.69;5134097;28;19931;-49
2022/06/22 02:55:13;;;;;;;;;;;;;;;12.80;100.00;97645.72;5134071;28;19934;-49
2022/06/22 02:57:43;;;;;;;;;;;;;;;12.89;100.00;97648.69;5134001;28;19927;-49
2022/06/22 03:00:10;;;;;;;;;;;;;;;13.23;100.00;97658.75;5133566;28;20039;-51
2022/06/22 03:02:36;;;;;;;;;;;;;;;13.00;100.00;97671.31;5134169;28;19931;-49
2022/06/22 03:05:05;;;;;;;;;;;;;;;12.84;100.00;97671.19;5133658;28;19938;-49
2022/06/22 03:07:32;;;;;;;;;;;;;;;12.98;100.00;97667.44;5133650;28;20029;-50
2022/06/22 03:09:59;;;;;;;;;;;;;;;12.98;100.00;97661.94;5133762;28;19934;-49
2022/06/22 03:12:24;;;;;;;;;;;;;;;13.14;100.00;97662.06;5133658;28;19928;-49
2022/06/22 03:14:54;;;;;;;;;;;;;;;13.09;100.00;97688.06;5133569;28;20419;-49
2022/06/22 03:17:22;;;;;;;;;;;;;;;13.09;100.00;97692.78;5133531;28;19927;-50
2022/06/22 03:19:50;;;;;;;;;;;;;;;13.16;100.00;97695.41;5133706;28;19982;-50
2022/06/22 03:22:19;;;;;;;;;;;;;;;13.14;100.00;97704.09;5133195;28;19933;-49
2022/06/22 03:24:49;;;;;;;;;;;;;;;13.06;100.00;97712.88;5133434;28;19927;-53
2022/06/22 03:27:18;;;;;;;;;;;;;;;12.89;100.00;97717.44;5133283;28;19934;-51
2022/06/22 03:29:48;;;;;;;;;;;;;;;13.04;100.00;97720.78;5133780;28;19927;-53
2022/06/22 03:32:18;;;;;;;;;;;;;;;13.03;100.00;97721.97;5132254;27;19927;-53
2022/06/22 03:34:47;;;;;;;;;;;;;;;12.92;100.00;97727.63;5133436;28;19950;-50
2022/06/22 03:37:16;;;;;;;;;;;;;;;13.13;100.00;97730.06;5133263;28;19927;-50
2022/06/22 03:39:45;;;;;;;;;;;;;;;13.12;100.00;97731.25;5133152;28;19931;-52
2022/06/22 03:42:13;;;;;;;;;;;;;;;13.31;100.00;97749.06;5133320;28;19985;-52
2022/06/22 03:44:43;;;;;;;;;;;;;;;13.18;100.00;97757.09;5133034;28;19934;-52
2022/06/22 03:47:13;;;;;;;;;;;;;;;13.34;100.00;97769.50;5133289;28;20387;-51
2022/06/22 03:49:43;;;;;;;;;;;;;;;13.25;100.00;97778.25;5132942;28;19935;-49
2022/06/22 03:52:13;;;;;;;;;;;;;;;13.23;100.00;97788.09;5133008;28;19927;-50
2022/06/22 03:54:40;;;;;;;;;;;;;;;13.24;100.00;97790.47;5132766;28;19935;-50
2022/06/22 03:57:09;;;;;;;;;;;;;;;13.40;100.00;97798.09;5133012;28;20010;-52
2022/06/22 03:59:37;;;;;;;;;;;;;;;13.31;100.00;97803.34;5133130;28;20441;-50
2022/06/22 04:02:03;;;;;;;;;;;;;;;13.37;100.00;97791.44;5132845;28;19927;-51
2022/06/22 04:04:29;;;;;;;;;;;;;;;13.31;100.00;97778.56;5133291;28;20376;-51
2022/06/22 04:06:56;;;;;;;;;;;;;;;13.46;100.00;97798.38;5132927;28;19928;-50
2022/06/22 04:09:23;;;;;;;;;;;;;;;13.25;100.00;97799.50;5132988;28;20018;-50
2022/06/22 04:11:53;;;;;;;;;;;;;;;13.34;100.00;97808.81;5132802;28;19927;-51
2022/06/22 04:14:22;;;;;;;;;;;;;;;13.11;100.00;97806.75;5133099;28;19934;-49
2022/06/22 04:16:50;;;;;;;;;;;;;;;13.31;100.00;97812.38;5132490;28;20413;-52
2022/06/22 04:19:20;;;;;;;;;;;;;;;13.42;100.00;97823.22;5132473;28;19927;-50
2022/06/22 04:21:49;;;;;;;;;;;;;;;13.37;100.00;97829.22;5132329;28;19997;-51
2022/06/22 04:24:19;;;;;;;;;;;;;;;13.35;100.00;97848.09;5132357;28;20026;-51
2022/06/22 04:26:46;;;;;;;;;;;;;;;13.50;100.00;97860.47;5132518;28;20370;-53
2022/06/22 04:29:15;;;;;;;;;;;;;;;13.41;100.00;97861.00;5132381;28;19931;-54
2022/06/22 04:31:47;;;;;;;;;;;;;;;13.45;100.00;97887.69;5132552;28;19996;-53
2022/06/22 04:34:17;;;;;;;;;;;;;;;13.32;100.00;97890.22;5132303;28;19934;-53
2022/06/22 04:36:46;;;;;;;;;;;;;;;13.56;100.00;97905.63;5132451;28;19980;-52
2022/06/22 04:39:14;;;;;;;;;;;;;;;13.52;100.00;97901.34;5132022;28;19927;-52
2022/06/22 04:41:42;;;;;;;;;;;;;;;13.71;100.00;97888.88;5132204;28;20016;-51
2022/06/22 04:44:13;;;;;;;;;;;;;;;13.50;100.00;97893.53;5131416;27;20390;-53
2022/06/22 04:46:41;;;;;;;;;;;;;;;13.33;100.00;97894.56;5132011;28;19927;-51
2022/06/22 04:49:12;;;;;;;;;;;;;;;13.52;100.00;97907.63;5132057;28;19933;-52
2022/06/22 04:51:39;;;;;;;;;;;;;;;13.65;100.00;97919.63;5131762;28;20054;-52
2022/06/22 04:54:07;;;;;;;;;;;;;;;13.94;100.00;97921.97;5132097;28;19993;-53
2022/06/22 04:56:35;;;;;;;;;;;;;;;13.98;100.00;97921.91;5131880;28;19933;-53
2022/06/22 04:59:02;;;;;;;;;;;;;;;13.87;100.00;97941.38;5132073;28;19927;-50
2022/06/22 05:01:32;;;;;;;;;;;;;;;13.92;100.00;97946.41;5131562;28;19990;-51
2022/06/22 05:03:59;;;;;;;;;;;;;;;13.84;100.00;97956.75;5132136;28;20408;-53
2022/06/22 05:06:29;;;;;;;;;;;;;;;13.89;100.00;97950.00;5131555;28;20398;-54
2022/06/22 05:08:59;;;;;;;;;;;;;;;13.92;100.00;97940.88;5131588;28;19931;-51
2022/06/22 05:11:27;;;;;;;;;;;;;;;13.97;100.00;97958.94;5131656;28;19951;-53
2022/06/22 05:13:54;;;;;;;;;;;;;;;13.85;100.00;97979.56;5131351;28;19932;-53
2022/06/22 05:16:22;;;;;;;;;;;;;;;14.05;100.00;98001.72;5131628;28;19950;-53
2022/06/22 05:18:49;;;;;;;;;;;;;;;14.26;100.00;98006.91;5131302;28;20287;-53
2022/06/22 05:21:18;;;;;;;;;;;;;;;14.19;100.00;98022.78;5131519;28;19927;-53
2022/06/22 05:23:46;;;;;;;;;;;;;;;13.77;100.00;98027.69;5131257;28;19927;-53
2022/06/22 05:26:18;;;;;;;;;;;;;;;13.83;100.00;98009.53;5131509;28;20337;-52
2022/06/22 05:28:47;;;;;;;;;;;;;;;13.78;100.00;98012.72;5131131;28;19949;-52
2022/06/22 05:31:15;;;;;;;;;;;;;;;13.82;100.00;98002.44;5131392;28;19935;-49
2022/06/22 05:33:44;;;;;;;;;;;;;;;13.88;100.00;98011.81;5131209;28;20474;-49
2022/06/22 05:36:11;;;;;;;;;;;;;;;13.88;100.00;98018.09;5131477;28;19954;-48
2022/06/22 05:38:38;;;;;;;;;;;;;;;13.78;100.00;98032.00;5131198;28;20006;-50
2022/06/22 05:41:07;;;;;;;;;;;;;;;13.99;100.00;98026.19;5131237;28;19997;-50
2022/06/22 05:43:34;;;;;;;;;;;;;;;13.94;100.00;98054.22;5131278;28;19928;-50
2022/06/22 05:46:02;;;;;;;;;;;;;;;13.87;100.00;98070.84;5131424;28;19973;-51
2022/06/22 05:48:29;;;;;;;;;;;;;;;13.86;100.00;98059.06;5131011;28;20406;-53
2022/06/22 05:50:56;;;;;;;;;;;;;;;14.23;100.00;98079.41;5130825;28;20339;-50
2022/06/22 05:53:25;;;;;;;;;;;;;;;14.32;100.00;98082.41;5131257;28;19931;-54
2022/06/22 05:55:59;;;;;;;;;;;;;;;14.48;100.00;98084.56;5129985;27;20033;-49
2022/06/22 05:58:32;;;;;;;;;;;;;;;14.56;100.00;98101.78;5130983;28;19927;-51
2022/06/22 06:00:59;;;;;;;;;;;;;;;14.71;100.00;98136.25;5130839;28;19935;-49
2022/06/22 06:03:29;;;;;;;;;;;;;;;14.56;100.00;98155.00;5130665;28;19927;-51
2022/06/22 06:05:58;;;;;;;;;;;;;;;14.38;100.00;98182.00;5131082;28;19953;-52
2022/06/22 06:08:25;;;;;;;;;;;;;;;14.49;100.00;98168.84;5131047;28;20022;-52
2022/06/22 06:10:52;;;;;;;;;;;;;;;14.85;100.00;98184.13;5130971;28;19932;-51
2022/06/22 06:13:20;;;;;;;;;;;;;;;14.72;100.00;98217.03;5130712;28;19972;-49
2022/06/22 06:15:49;;;;;;;;;;;;;;;15.11;100.00;98213.69;5130558;28;19927;-49
2022/06/22 06:18:16;;;;;;;;;;;;;;;15.29;100.00;98241.00;5130216;28;19927;-53
2022/06/22 06:20:45;;;;;;;;;;;;;;;15.70;100.00;98267.63;5130602;28;19927;-52
2022/06/22 06:23:15;;;;;;;;;;;;;;;15.75;100.00;98273.44;5130355;28;20030;-50
2022/06/22 06:28:29;;;;;;;;;;;;;;;15.82;100.00;98325.03;5130531;28;19950;-50
2022/06/22 06:30:59;;;;;;;;;;;;;;;15.32;100.00;98336.06;5129917;28;19928;-52
2022/06/22 06:33:29;;;;;;;;;;;;;;;15.89;100.00;98337.94;5130362;28;19927;-53
2022/06/22 06:35:57;;;;;;;;;;;;;;;15.88;100.00;98341.91;5130037;28;20391;-53
2022/06/22 06:38:25;;;;;;;;;;;;;;;15.85;100.00;98351.06;5130265;28;19937;-54
2022/06/22 06:40:55;;;;;;;;;;;;;;;15.75;100.00;98378.44;5130280;28;19927;-53
2022/06/22 06:43:32;;;;;;;;;;;;;;;15.87;100.00;98374.31;5130103;28;19928;-53
2022/06/22 06:46:00;;;;;;;;;;;;;;;16.24;100.00;98383.56;5130294;28;20010;-53
2022/06/22 06:48:26;;;;;;;;;;;;;;;16.71;100.00;98389.03;5130138;28;20402;-53
2022/06/22 06:50:54;;;;;;;;;;;;;;;17.09;100.00;98386.72;5130392;28;19957;-54
2022/06/22 06:53:25;;;;;;;;;;;;;;;17.12;100.00;98390.59;5130201;28;19928;-52
2022/06/22 06:55:54;;;;;;;;;;;;;;;17.23;100.00;98362.69;5130292;28;19927;-51
2022/06/22 06:58:23;;;;;;;;;;;;;;;17.61;100.00;98365.78;5130200;28;19934;-53
2022/06/22 07:00:49;;;;;;;;;;;;;;;17.72;100.00;98340.59;5130194;28;20413;-55
2022/06/22 07:03:19;;;;;;;;;;;;;;;17.83;100.00;98316.19;5130157;28;19978;-51
2022/06/22 07:05:46;;;;;;;;;;;;;;;17.85;100.00;98338.72;5130347;27;19935;-53
2022/06/22 07:08:15;;;;;;;;;;;;;;;18.00;100.00;98336.38;5133135;28;19928;-53
2022/06/22 07:10:44;;;;;;;;;;;;;;;18.22;100.00;98262.47;5133123;28;20392;-54
2022/06/22 07:13:13;;;;;;;;;;;;;;;18.00;100.00;98219.91;5133221;28;19927;-54
2022/06/22 07:15:41;;;;;;;;;;;;;;;17.74;100.00;98232.84;5133190;28;20445;-54
2022/06/22 07:18:15;;;;;;;;;;;;;;;17.85;100.00;98183.44;5133493;28;19942;-54
2022/06/22 07:20:44;;;;;;;;;;;;;;;17.55;100.00;98224.19;5132767;28;20232;-54
2022/06/22 07:23:12;;;;;;;;;;;;;;;17.83;100.00;98261.53;5133177;28;19927;-53
2022/06/22 07:25:41;;;;;;;;;;;;;;;17.82;100.00;98259.16;5133033;28;19927;-53
2022/06/22 07:28:13;;;;;;;;;;;;;;;17.62;100.00;98334.09;5133351;28;19927;-54
2022/06/22 07:30:42;;;;;;;;;;;;;;;17.28;100.00;98310.31;5133094;28;19943;-54
2022/06/22 07:33:13;;;;;;;;;;;;;;;17.79;100.00;98334.91;5132895;28;20264;-54
2022/06/22 07:35:41;;;;;;;;;;;;;;;18.26;100.00;98331.72;5132874;28;20254;-54
2022/06/22 07:38:14;;;;;;;;;;;;;;;18.48;100.00;98306.94;5132852;28;20030;-54
2022/06/22 07:41:18;;;;;;;;;;;;;;;18.14;100.00;98191.75;5132695;28;19934;-54
2022/06/22 07:43:28;;;;;;;;;;;;;;;17.77;100.00;98226.44;5132513;28;20326;-54
2022/06/22 07:45:55;;;;;;;;;;;;;;;17.94;100.00;98203.00;5133150;28;20312;-53
2022/06/22 07:48:22;;;;;;;;;;;;;;;18.45;100.00;98216.25;5132527;28;19931;-54
2022/06/22 07:50:51;;;;;;;;;;;;;;;18.28;100.00;98101.78;5132436;28;19932;-54
2022/06/22 07:53:22;;;;;;;;;;;;;;;18.22;100.00;97990.59;5132564;28;19973;-53
2022/06/22 07:55:51;;;;;;;;;;;;;;;18.20;100.00;98104.03;5132492;28;20386;-51
2022/06/22 07:58:20;;;;;;;;;;;;;;;18.58;100.00;98122.69;5132654;28;19961;-55
2022/06/22 08:00:47;;;;;;;;;;;;;;;18.30;100.00;98089.03;5132281;28;19928;-55
2022/06/22 08:03:18;;;;;;;;;;;;;;;18.06;100.00;98021.22;5132445;28;19934;-53
2022/06/22 08:05:46;;;;;;;;;;;;;;;18.09;100.00;98167.31;5132306;28;20401;-54
2022/06/22 08:08:17;;;;;;;;;;;;;;;17.95;100.00;98131.69;5132236;28;19941;-56
2022/06/22 08:10:45;;;;;;;;;;;;;;;18.03;100.00;98142.16;5132225;28;19935;-52
2022/06/22 08:13:12;;;;;;;;;;;;;;;18.13;100.00;98126.41;5132548;28;19927;-55
2022/06/22 08:15:40;;;;;;;;;;;;;;;18.15;100.00;97995.59;5132237;28;19927;-55
2022/06/22 08:18:07;;;;;;;;;;;;;;;17.77;100.00;97947.25;5131418;27;19949;-52
2022/06/22 08:20:35;;;;;;;;;;;;;;;18.34;100.00;98022.34;5132200;28;19928;-54
2022/06/22 08:23:04;;;;;;;;;;;;;;;18.13;100.00;97928.69;5132251;28;19993;-54
2022/06/22 08:25:31;;;;;;;;;;;;;;;17.97;100.00;97849.22;5132064;28;19927;-54
2022/06/22 08:27:58;;;;;;;;;;;;;;;17.98;100.00;97806.38;5131969;28;19927;-52
2022/06/22 08:30:26;;;;;;;;;;;;;;;18.44;100.00;97773.50;5131570;28;20147;-55
2022/06/22 08:32:54;;;;;;;;;;;;;;;18.97;100.00;97768.00;5131844;28;20130;-53
2022/06/22 08:35:22;;;;;;;;;;;;;;;19.15;100.00;97618.06;5132031;28;19931;-55
2022/06/22 08:37:50;;;;;;;;;;;;;;;18.95;100.00;97532.38;5131741;28;19990;-54
2022/06/22 08:40:23;;;;;;;;;;;;;;;19.28;100.00;97531.81;5132224;28;19927;-55
2022/06/22 08:42:53;;;;;;;;;;;;;;;19.13;100.00;97408.69;5132033;28;19996;-55
2022/06/22 08:45:25;;;;;;;;;;;;;;;19.17;100.00;97368.38;5131673;28;20022;-55
2022/06/22 08:47:56;;;;;;;;;;;;;;;19.33;100.00;97303.38;5131975;28;19928;-55
2022/06/22 08:50:40;;;;;;;;;;;;;;;20.08;100.00;97380.41;5131707;28;19931;-55
2022/06/22 08:53:19;;;;;;;;;;;;;;;20.11;100.00;97262.63;5131368;28;19967;-55
2022/06/22 08:55:54;;;;;;;;;;;;;;;21.01;100.00;97194.66;5131538;28;19934;-55
2022/06/22 08:58:31;;;;;;;;;;;;;;;20.64;100.00;97103.22;5131599;28;19928;-55
2022/06/22 09:01:01;;;;;;;;;;;;;;;20.77;100.00;97152.25;5131691;28;20352;-55
2022/06/22 09:03:50;;;;;;;;;;;;;;;19.76;100.00;97176.25;5131598;28;20468;-55
2022/06/22 09:06:25;;;;;;;;;;;;;;;19.56;100.00;97254.63;5105896;28;19928;-55
2022/06/22 09:09:00;;;;;;;;;;;;;;;19.18;100.00;97339.34;5131521;28;19934;-54
2022/06/22 09:11:31;;;;;;;;;;;;;;;19.27;100.00;97447.69;5132302;28;19931;-54
2022/06/22 09:14:07;;;;;;;;;;;;;;;19.40;100.00;97480.09;5131504;28;20466;-53
2022/06/22 09:16:40;;;;;;;;;;;;;;;19.52;100.00;97516.03;5131438;28;19927;-50
2022/06/22 09:19:18;;;;;;;;;;;;;;;19.85;100.00;97297.72;5131254;28;19928;-53
2022/06/22 09:21:52;;;;;;;;;;;;;;;19.85;100.00;97276.25;5131151;28;19942;-50
2022/06/22 09:24:20;;;;;;;;;;;;;;;20.05;100.00;97245.06;5131382;28;19933;-53
2022/06/22 09:26:55;;;;;;;;;;;;;;;19.70;100.00;97156.66;5131245;28;19931;-51
2022/06/22 09:29:32;;;;;;;;;;;;;;;19.83;100.00;97142.50;5130266;27;19927;-56
2022/06/22 09:32:16;;;;;;;;;;;;;;;19.78;100.00;97134.06;5131095;28;19978;-57
2022/06/22 09:34:51;;;;;;;;;;;;;;;19.94;100.00;97112.13;5131119;28;19927;-58
2022/06/22 09:37:27;;;;;;;;;;;;;;;19.92;100.00;97150.75;5131248;28;20302;-55
2022/06/22 09:40:11;;;;;;;;;;;;;;;20.10;100.00;97119.25;5131186;28;19928;-56
2022/06/22 09:42:56;;;;;;;;;;;;;;;19.62;100.00;97104.66;5131011;28;19977;-55
2022/06/22 09:45:36;;;;;;;;;;;;;;;19.57;100.00;97155.34;5130704;28;19934;-54
2022/06/22 09:48:13;;;;;;;;;;;;;;;19.34;100.00;97215.22;5131137;28;20368;-56
2022/06/22 09:50:54;;;;;;;;;;;;;;;19.51;100.00;97249.72;5131340;28;20018;-54
2022/06/22 09:53:33;;;;;;;;;;;;;;;19.71;100.00;97168.53;5130906;28;19972;-55
2022/06/22 09:56:19;;;;;;;;;;;;;;;20.28;100.00;97134.97;5131010;28;19933;-55
2022/06/22 09:59:16;;;;;;;;;;;;;;;20.44;100.00;97109.44;5130941;28;19932;-52
2022/06/22 10:01:47;;;;;;;;;;;;;;;20.23;100.00;97105.06;5130820;28;19927;-54
2022/06/22 10:04:36;;;;;;;;;;;;;;;20.40;100.00;97105.34;5131002;28;19985;-55
2022/06/22 10:07:12;;;;;;;;;;;;;;;20.74;100.00;97105.88;5130826;28;19938;-54
2022/06/22 10:09:51;;;;;;;;;;;;;;;20.97;100.00;97130.03;5130944;28;19928;-54
2022/06/22 10:12:24;;;;;;;;;;;;;;;20.83;100.00;97108.56;5130944;28;19953;-51
2022/06/22 10:15:04;;;;;;;;;;;;;;;20.98;100.00;97097.38;5130921;28;19928;-52
2022/06/22 10:17:47;;;;;;;;;;;;;;;21.10;100.00;97087.91;5126497;28;19934;-55
2022/06/22 10:20:23;;;;;;;;;;;;;;;21.07;100.00;97088.88;5130490;28;19928;-54
2022/06/22 10:22:55;;;;;;;;;;;;;;;21.63;100.00;97095.19;5130876;28;19973;-54
2022/06/22 10:25:35;;;;;;;;;;;;;;;21.06;100.00;97101.25;5130499;28;19928;-53
2022/06/22 10:28:12;;;;;;;;;;;;;;;21.44;100.00;97107.88;5108911;28;20291;-53
2022/06/22 10:30:45;;;;;;;;;;;;;;;20.54;100.00;97115.69;5130203;28;19928;-51
2022/06/22 10:33:35;;;;;;;;;;;;;;;19.72;100.00;97140.25;5130432;28;20014;-51
2022/06/22 10:36:12;;;;;;;;;;;;;;;19.43;100.00;97151.28;5130545;28;19927;-55
2022/06/22 10:38:50;;;;;;;;;;;;;;;19.30;100.00;97220.19;5130076;28;19927;-53
2022/06/22 10:47:22;;;;;;;;;;;;;;;19.84;100.00;97429.66;5070393;28;20362;-54
2022/06/22 10:49:54;;;;;;;;;;;;;;;20.23;100.00;97347.09;5121302;28;19954;-53
2022/06/22 10:52:28;;;;;;;;;;;;;;;20.23;100.00;97335.97;5133674;28;19934;-51
2022/06/22 10:55:01;;;;;;;;;;;;;;;20.13;100.00;97276.09;5133548;28;19931;-51
2022/06/22 10:57:37;;;;;;;;;;;;;;;19.79;100.00;97327.41;5133665;28;20014;-55
2022/06/22 11:00:14;;;;;;;;;;;;;;;19.09;100.00;97503.25;5133621;28;19934;-54
2022/06/22 11:03:01;;;;;;;;;;;;;;;18.58;100.00;97704.34;5133813;28;20343;-50
2022/06/22 11:05:37;;;;;;;;;;;;;;;18.49;100.00;98006.81;5133513;28;19934;-49
2022/06/22 11:08:14;;;;;;;;;;;;;;;18.08;100.00;98110.31;5133807;28;20428;-50
2022/06/22 11:10:51;;;;;;;;;;;;;;;18.51;100.00;98289.44;5133582;28;20313;-50
2022/06/22 11:13:26;;;;;;;;;;;;;;;18.71;100.00;98306.69;5133468;28;19934;-51
2022/06/22 11:16:10;;;;;;;;;;;;;;;19.20;100.00;98295.34;5133398;28;20235;-52
2022/06/22 11:18:52;;;;;;;;;;;;;;;19.14;100.00;98093.53;5132651;28;19927;-49
2022/06/22 11:21:25;;;;;;;;;;;;;;;19.63;100.00;98079.16;5133242;28;19927;-52
2022/06/22 11:24:06;;;;;;;;;;;;;;;19.65;100.00;97918.22;5133161;28;19933;-51
2022/06/22 11:32:41;;;;;;;;;;;;;;;20.08;100.00;97763.53;5133174;28;20428;-52
2022/06/22 11:35:27;;;;;;;;;;;;;;;20.25;100.00;97658.25;5133276;28;19928;-51
2022/06/22 11:38:02;;;;;;;;;;;;;;;20.04;100.00;97515.34;5133039;28;19927;-60
2022/06/22 11:40:46;;;;;;;;;;;;;;;20.02;100.00;97390.63;5132927;28;19927;-55
2022/06/22 11:43:25;;;;;;;;;;;;;;;20.40;100.00;97405.91;5132848;28;19931;-53
2022/06/22 11:45:55;;;;;;;;;;;;;;;20.42;100.00;97467.41;5132790;28;19971;-53
2022/06/22 11:48:38;;;;;;;;;;;;;;;20.47;100.00;97354.66;5132887;28;19928;-51
2022/06/22 11:51:12;;;;;;;;;;;;;;;20.27;100.00;97233.59;5132807;28;19927;-54
2022/06/22 11:53:46;;;;;;;;;;;;;;;20.31;100.00;97264.03;5131693;27;19927;-55
2022/06/22 11:56:17;;;;;;;;;;;;;;;20.18;100.00;97284.53;5132721;28;19997;-52
2022/06/22 11:58:42;;;;;;;;;;;;;;;;;;5132785;28;19927;-53
2022/06/22 12:01:34;;;;;;;;;;;;;;;20.48;100.00;97289.41;5132785;28;19934;-55
2022/06/22 12:04:23;;;;;;;;;;;;;;;20.53;100.00;97272.84;5132721;28;19927;-56
2022/06/22 12:06:56;;;;;;;;;;;;;;;20.58;100.00;97265.81;5107076;28;19928;-50
2022/06/22 12:09:29;;;;;;;;;;;;;;;20.70;100.00;97264.03;5132574;28;19981;-52
2022/06/22 12:12:05;;;;;;;;;;;;;;;20.82;100.00;97255.38;5132449;28;20026;-49
2022/06/22 12:17:27;;;;;;;;;;;;;;;21.16;100.00;97281.03;5132602;28;19938;-53
2022/06/22 12:19:59;;;;;;;;;;;;;;;20.89;100.00;97273.72;5132660;28;19934;-57
2022/06/22 12:22:32;;;;;;;;;;;;;;;20.97;100.00;97319.44;5132604;28;19928;-56
2022/06/22 12:25:05;;;;;;;;;;;;;;;21.10;100.00;97319.91;5132713;28;19977;-52
2022/06/22 12:27:33;;;;;;;;;;;;;;;21.18;100.00;97341.81;5132221;28;19953;-57
2022/06/22 12:30:07;;;;;;;;;;;;;;;21.45;100.00;97279.44;5132127;28;19928;-56
2022/06/22 12:32:36;;;;;;;;;;;;;;;21.18;100.00;97291.66;5132353;28;19928;-55
2022/06/22 12:35:05;;;;;;;;;;;;;;;21.24;100.00;97226.41;5132046;28;19931;-55
2022/06/22 12:37:33;;;;;;;;;;;;;;;20.57;100.00;97214.19;5131948;28;19927;-55
2022/06/22 12:40:02;;;;;;;;;;;;;;;20.97;100.00;97218.41;5132186;28;19927;-50
2022/06/22 12:42:38;;;;;;;;;;;;;;;21.02;100.00;97210.13;5132171;28;19957;-53
2022/06/22 12:45:22;;;;;;;;;;;;;;;20.85;100.00;97225.78;5131888;28;19980;-51
2022/06/22 12:47:59;;;;;;;;;;;;;;;21.09;100.00;97220.09;5131744;28;19938;-54
2022/06/22 12:50:42;;;;;;;;;;;;;;;21.36;100.00;97216.25;5131864;28;19931;-55
2022/06/22 12:53:11;;;;;;;;;;;;;;;21.53;100.00;97220.03;5131637;28;19932;-55
2022/06/22 12:55:39;;;;;;;;;;;;;;;21.26;100.00;97218.34;5131763;28;20017;-55
2022/06/22 12:58:09;;;;;;;;;;;;;;;20.61;100.00;97226.66;5131709;28;19927;-52
2022/06/22 13:00:37;;;;;;;;;;;;;;;20.30;100.00;97235.44;5131807;28;19927;-55
2022/06/22 13:03:04;;;;;;;;;;;;;;;20.09;100.00;97231.75;5131670;28;20398;-55
2022/06/22 13:05:31;;;;;;;;;;;;;;;20.11;100.00;97301.56;5131548;27;20318;-57
2022/06/22 13:07:58;;;;;;;;;;;;;;;19.80;100.00;97284.50;5131457;28;19972;-50
2022/06/22 13:10:26;;;;;;;;;;;;;;;19.52;100.00;97317.94;5131516;28;20018;-50
2022/06/22 13:12:56;;;;;;;;;;;;;;;19.19;100.00;97337.34;5131408;28;19927;-51
2022/06/22 13:15:24;;;;;;;;;;;;;;;19.45;100.00;97379.41;5131565;28;19934;-51
2022/06/22 13:17:56;;;;;;;;;;;;;;;19.53;100.00;97366.75;5132072;28;20487;-48